NTAA METAR and TAF | Updated Today

NTAA METAR

Faa'a International Airport

Observation time: 28 min. ago

NTAA 251930Z 23005KT 9999 FEW026 27/21 Q1014 NOSIG

Need help? Read our tutorial on how to read METARs or read the parsed version below.

Faa'a International Airport (NTAA) METAR

  • Weather conditions on Wed, 25 May 2022 19:30:00 +0000 (28 min. ago):
  • Present conditions: Dry
  • Clouds: A few at 792 meters
  • Visibility: Greater than 10 km
  • Wind: 230 degrees at 5 knots
  • Temperature: 27 celsius
  • Dew point: 21 celsius
  • Pressure: 1014 millibars
  • Remarks: None


Useful to know...

NTAA TAF

Faa'a International Airport

TAF NTAA 251700Z 2518/2624 VRB05KT 9999 FEW025
Observation time: 2:58 hr. ago
Need help? Read our tutorial on how to read TAFs or read the parsed version below.

Parsed version of TAF for Faa'a International Airport (NTAA)

  • From 25 May at 18:00 UTC, to day 26 of the month at 24:00 UTC
  • Clouds: A few at 762 meters
  • Visibility: Greater than 10 km
  • Wind: Variable at 5

Airports near NTAA

No airports found within 100nm radius.